createdAt,value
2018-06-27T00:01:01.103Z,11.50
2018-06-27T00:03:30.288Z,11.50
2018-06-27T00:05:59.188Z,11.50
2018-06-27T00:08:28.082Z,11.50
2018-06-27T00:10:56.995Z,11.40
2018-06-27T00:13:25.890Z,11.40
2018-06-27T00:15:54.826Z,11.40
2018-06-27T00:18:23.710Z,11.40
2018-06-27T00:20:52.617Z,11.30
2018-06-27T00:23:21.518Z,11.30
2018-06-27T00:25:50.422Z,11.30
2018-06-27T00:28:19.316Z,11.20
2018-06-27T00:30:48.221Z,11.00
2018-06-27T00:33:17.141Z,11.00
2018-06-27T00:35:46.051Z,11.10
2018-06-27T00:38:17.572Z,11.10
2018-06-27T00:40:46.683Z,11.00
2018-06-27T00:43:16.588Z,10.80
2018-06-27T00:45:45.529Z,10.70
2018-06-27T00:48:14.423Z,10.70
2018-06-27T00:50:43.442Z,10.70
2018-06-27T00:53:12.317Z,10.70
2018-06-27T00:55:41.274Z,10.60
2018-06-27T00:58:10.179Z,10.50
2018-06-27T01:00:39.066Z,10.50
2018-06-27T01:03:07.955Z,10.40
2018-06-27T01:05:36.858Z,10.40
2018-06-27T01:08:05.827Z,10.40
2018-06-27T01:10:34.766Z,10.40
2018-06-27T01:13:03.645Z,10.40
2018-06-27T01:15:32.552Z,10.50
2018-06-27T01:18:01.672Z,10.60
2018-06-27T01:20:30.577Z,10.60
2018-06-27T01:22:59.476Z,10.60
2018-06-27T01:25:28.390Z,10.70
2018-06-27T01:27:57.270Z,10.70
2018-06-27T01:30:26.197Z,10.70
2018-06-27T01:32:55.087Z,10.70
2018-06-27T01:35:24.000Z,10.70
2018-06-27T01:37:52.888Z,10.70
2018-06-27T01:42:50.367Z,10.70
2018-06-27T01:45:19.258Z,10.70
2018-06-27T01:50:16.734Z,10.70
2018-06-27T01:52:45.630Z,10.70
2018-06-27T01:55:14.514Z,10.70
2018-06-27T01:57:43.426Z,10.70
2018-06-27T02:00:17.497Z,10.70
2018-06-27T02:02:46.411Z,10.60
2018-06-27T02:05:15.310Z,10.50
2018-06-27T02:07:44.199Z,10.60
2018-06-27T02:10:13.285Z,10.50
2018-06-27T02:12:42.182Z,10.50
2018-06-27T02:15:11.150Z,10.50
2018-06-27T02:17:40.067Z,10.50
2018-06-27T02:20:08.971Z,10.50
2018-06-27T02:22:37.874Z,10.40
2018-06-27T02:25:06.754Z,10.30
2018-06-27T02:27:35.687Z,10.30
2018-06-27T02:30:04.542Z,10.20
2018-06-27T02:32:33.448Z,10.30
2018-06-27T02:35:02.339Z,10.10
2018-06-27T02:37:31.259Z,10.20
2018-06-27T02:40:00.152Z,10.30
2018-06-27T02:42:29.171Z,10.20
2018-06-27T02:44:58.160Z,10.10
2018-06-27T02:47:27.139Z,10.10
2018-06-27T02:49:56.206Z,10.10
2018-06-27T02:54:53.553Z,10.10
2018-06-27T02:57:22.887Z,10.00
2018-06-27T02:59:52.577Z,10.00
2018-06-27T03:02:21.483Z,10.10
2018-06-27T03:04:50.407Z,10.00
2018-06-27T03:07:19.307Z,9.90
2018-06-27T03:09:48.639Z,9.80
2018-06-27T03:12:17.542Z,9.80
2018-06-27T03:14:46.466Z,9.70
2018-06-27T03:17:15.350Z,9.50
2018-06-27T03:19:44.235Z,9.50
2018-06-27T03:22:13.139Z,9.40
2018-06-27T03:24:42.010Z,9.40
2018-06-27T03:27:10.919Z,9.40
2018-06-27T03:29:39.802Z,9.40
2018-06-27T03:32:08.688Z,9.40
2018-06-27T03:34:37.558Z,9.40
2018-06-27T03:37:06.458Z,9.50
2018-06-27T03:39:35.346Z,9.60
2018-06-27T03:42:04.326Z,9.70
2018-06-27T03:44:33.197Z,9.80
2018-06-27T03:49:30.648Z,10.00
2018-06-27T03:51:59.539Z,10.10
2018-06-27T03:54:28.430Z,10.20
2018-06-27T03:56:57.337Z,10.20
2018-06-27T03:59:26.254Z,10.30
2018-06-27T04:01:55.174Z,10.40
2018-06-27T04:04:24.062Z,10.50
2018-06-27T04:06:52.962Z,10.60
2018-06-27T04:09:21.887Z,10.70
2018-06-27T04:11:50.802Z,10.70
2018-06-27T04:14:19.717Z,10.80
2018-06-27T04:16:48.610Z,10.80
2018-06-27T04:19:17.529Z,10.80
2018-06-27T04:21:46.426Z,10.90
2018-06-27T04:24:15.324Z,10.90
2018-06-27T04:29:12.779Z,10.90
2018-06-27T04:31:41.665Z,11.00
2018-06-27T04:34:10.561Z,11.00
2018-06-27T04:39:09.538Z,11.20
2018-06-27T04:41:38.718Z,11.30
2018-06-27T04:44:07.823Z,11.40
2018-06-27T04:46:37.022Z,11.50
2018-06-27T04:49:05.936Z,11.60
2018-06-27T04:51:35.140Z,11.70
2018-06-27T04:54:04.052Z,11.70
2018-06-27T04:56:32.937Z,11.90
2018-06-27T04:59:01.843Z,11.90
2018-06-27T05:01:30.750Z,12.00
2018-06-27T05:03:59.655Z,12.10
2018-06-27T05:06:28.542Z,12.20
2018-06-27T05:08:57.449Z,12.30
2018-06-27T05:11:26.343Z,12.30
2018-06-27T05:13:55.267Z,12.40
2018-06-27T05:16:24.147Z,12.50
2018-06-27T05:18:53.057Z,12.60
2018-06-27T05:21:21.951Z,12.60
2018-06-27T05:23:50.844Z,12.70
2018-06-27T05:26:19.734Z,12.80
2018-06-27T05:28:48.633Z,12.90
2018-06-27T05:31:18.058Z,13.00
2018-06-27T05:33:46.965Z,13.10
2018-06-27T05:36:16.947Z,13.20
2018-06-27T05:38:46.095Z,13.20
2018-06-27T05:41:15.002Z,13.30
2018-06-27T05:43:43.910Z,13.40
2018-06-27T05:46:12.799Z,13.50
2018-06-27T05:48:41.706Z,13.60
2018-06-27T05:51:10.634Z,13.70
2018-06-27T05:53:39.550Z,13.80
2018-06-27T05:56:08.454Z,13.80
2018-06-27T05:58:37.817Z,13.90
2018-06-27T06:01:06.719Z,14.00
2018-06-27T06:03:35.657Z,14.00
2018-06-27T06:06:04.614Z,14.10
2018-06-27T06:08:33.521Z,14.20
2018-06-27T06:11:02.406Z,14.20
2018-06-27T06:13:31.327Z,14.30
2018-06-27T06:16:00.262Z,14.50
2018-06-27T06:18:29.176Z,14.50
2018-06-27T06:20:58.076Z,14.50
2018-06-27T06:23:26.991Z,14.50
2018-06-27T06:25:56.299Z,14.50
2018-06-27T06:28:25.206Z,14.50
2018-06-27T06:30:54.102Z,14.60
2018-06-27T06:33:22.983Z,14.50
2018-06-27T06:35:51.963Z,14.50
2018-06-27T06:38:20.867Z,14.50
2018-06-27T06:40:49.821Z,14.50
2018-06-27T06:43:18.647Z,14.60
2018-06-27T06:45:47.588Z,14.60
2018-06-27T06:48:16.867Z,14.70
2018-06-27T06:50:45.764Z,14.80
2018-06-27T06:53:14.668Z,14.70
2018-06-27T06:55:43.565Z,14.80
2018-06-27T06:58:12.959Z,14.80
2018-06-27T07:00:41.858Z,14.80
2018-06-27T07:03:10.750Z,14.80
2018-06-27T07:05:39.646Z,14.90
2018-06-27T07:08:08.537Z,15.10
2018-06-27T07:10:37.458Z,15.30
2018-06-27T07:13:06.406Z,15.50
2018-06-27T07:15:35.330Z,15.80
2018-06-27T07:18:04.250Z,16.20
2018-06-27T07:20:33.297Z,16.30
2018-06-27T07:23:02.203Z,16.40
2018-06-27T07:25:31.103Z,16.50
2018-06-27T07:27:59.996Z,16.70
2018-06-27T07:30:28.898Z,17.20
2018-06-27T07:32:57.787Z,17.20
2018-06-27T07:35:26.692Z,17.30
2018-06-27T07:37:55.586Z,17.80
2018-06-27T07:40:24.503Z,18.40
2018-06-27T07:45:22.181Z,19.30
2018-06-27T07:47:51.076Z,19.60
2018-06-27T07:50:20.030Z,20.00
2018-06-27T07:52:48.910Z,20.20
2018-06-27T07:55:17.827Z,20.30
2018-06-27T07:57:46.771Z,20.40
2018-06-27T08:00:15.680Z,20.70
2018-06-27T08:02:44.562Z,20.80
2018-06-27T08:05:13.478Z,21.00
2018-06-27T08:07:42.387Z,21.10
2018-06-27T08:10:11.378Z,21.30
2018-06-27T08:12:40.335Z,21.40
2018-06-27T08:15:09.258Z,21.70
2018-06-27T08:17:38.193Z,21.90
2018-06-27T08:22:35.659Z,22.00
2018-06-27T08:25:04.568Z,22.30
2018-06-27T08:27:33.450Z,22.40
2018-06-27T08:30:02.351Z,22.50
2018-06-27T08:32:31.306Z,22.70
2018-06-27T08:35:00.186Z,23.00
2018-06-27T08:37:29.083Z,23.00
2018-06-27T08:39:58.057Z,23.00
2018-06-27T08:42:26.902Z,23.00
2018-06-27T08:44:55.820Z,23.50
2018-06-27T08:47:24.726Z,23.80
2018-06-27T08:49:53.677Z,23.70
2018-06-27T08:52:22.530Z,24.00
2018-06-27T08:54:51.418Z,23.80
2018-06-27T08:57:20.320Z,23.90
2018-06-27T08:59:49.422Z,23.80
2018-06-27T09:02:18.339Z,23.80
2018-06-27T09:04:47.532Z,23.80
2018-06-27T09:07:16.454Z,24.10
2018-06-27T09:09:45.342Z,24.60
2018-06-27T09:12:14.251Z,24.80
2018-06-27T09:14:43.160Z,24.90
2018-06-27T09:17:12.312Z,25.10
2018-06-27T09:19:41.210Z,25.10
2018-06-27T09:22:10.127Z,25.20
2018-06-27T09:24:39.027Z,25.20
2018-06-27T09:27:07.924Z,25.00
2018-06-27T09:29:36.811Z,25.10
2018-06-27T09:32:06.098Z,25.30
2018-06-27T09:34:34.983Z,25.40
2018-06-27T09:37:03.894Z,25.80
2018-06-27T09:39:33.674Z,25.80
2018-06-27T09:42:02.637Z,26.20
2018-06-27T09:44:31.470Z,26.50
2018-06-27T09:47:00.374Z,26.50
2018-06-27T09:49:29.259Z,26.30
2018-06-27T09:51:58.223Z,26.20
2018-06-27T09:54:27.123Z,26.00
2018-06-27T09:56:56.106Z,26.00
2018-06-27T09:59:24.988Z,26.20
2018-06-27T10:01:53.870Z,26.00
2018-06-27T10:04:22.793Z,26.10
2018-06-27T10:06:51.705Z,26.20
2018-06-27T10:09:21.066Z,26.60
2018-06-27T10:11:49.979Z,26.30
2018-06-27T10:14:18.896Z,26.20
2018-06-27T10:16:47.790Z,26.10
2018-06-27T10:19:16.683Z,26.20
2018-06-27T10:21:45.834Z,26.30
2018-06-27T10:24:14.720Z,26.40
2018-06-27T10:26:43.643Z,26.20
2018-06-27T10:29:12.525Z,26.30
2018-06-27T10:31:41.435Z,26.10
2018-06-27T10:36:39.071Z,25.80
2018-06-27T10:39:09.475Z,25.70
2018-06-27T10:41:38.494Z,25.50
2018-06-27T10:44:07.443Z,25.50
2018-06-27T10:46:36.678Z,25.80
2018-06-27T10:49:05.787Z,25.70
2018-06-27T10:51:34.695Z,25.90
2018-06-27T10:56:32.155Z,25.40
2018-06-27T10:59:01.047Z,25.70
2018-06-27T11:01:29.939Z,25.90
2018-06-27T11:03:58.829Z,25.80
2018-06-27T11:09:03.079Z,26.10
2018-06-27T11:11:31.979Z,25.90
2018-06-27T11:14:00.870Z,26.00
2018-06-27T11:16:29.749Z,26.10
2018-06-27T11:18:58.638Z,26.50
2018-06-27T11:21:27.534Z,26.60
2018-06-27T11:23:56.453Z,26.50
2018-06-27T11:26:25.387Z,26.50
2018-06-27T11:28:54.532Z,26.60
2018-06-27T11:31:23.408Z,26.40
2018-06-27T11:33:52.311Z,26.20
2018-06-27T11:36:21.193Z,26.30
2018-06-27T11:38:50.116Z,26.20
2018-06-27T11:41:18.979Z,26.20
2018-06-27T11:43:47.895Z,26.40
2018-06-27T11:46:16.776Z,26.40
2018-06-27T11:48:45.742Z,26.40
2018-06-27T11:51:14.624Z,26.40
2018-06-27T11:53:43.531Z,26.70
2018-06-27T11:56:12.419Z,26.80
2018-06-27T11:58:41.301Z,26.70
2018-06-27T12:01:10.187Z,26.60
2018-06-27T12:03:39.102Z,26.50
2018-06-27T12:06:07.995Z,26.40
2018-06-27T12:08:36.891Z,26.10
2018-06-27T12:11:05.791Z,26.10
2018-06-27T12:13:34.688Z,26.00
2018-06-27T12:16:03.568Z,26.10
2018-06-27T12:18:32.466Z,26.30
2018-06-27T12:21:01.352Z,26.40
2018-06-27T12:23:30.248Z,26.70
2018-06-27T12:25:59.127Z,26.90
2018-06-27T12:28:28.023Z,26.70
2018-06-27T12:30:56.898Z,26.80
2018-06-27T12:33:25.802Z,26.90
2018-06-27T12:35:54.699Z,27.00
2018-06-27T12:38:23.603Z,27.10
2018-06-27T12:40:52.495Z,27.20
2018-06-27T12:43:21.394Z,27.10
2018-06-27T12:45:51.174Z,27.40
2018-06-27T12:48:20.096Z,27.70
2018-06-27T12:50:48.993Z,27.70
2018-06-27T12:53:17.896Z,27.60
2018-06-27T12:55:46.774Z,27.20
2018-06-27T12:58:15.740Z,27.50
2018-06-27T13:00:44.632Z,27.50
2018-06-27T13:03:13.523Z,27.50
2018-06-27T13:05:42.414Z,27.70
2018-06-27T13:08:11.310Z,28.00
2018-06-27T13:10:40.187Z,27.90
2018-06-27T13:13:09.102Z,27.50
2018-06-27T13:15:38.398Z,26.90
2018-06-27T13:18:07.551Z,26.80
2018-06-27T13:20:36.449Z,27.10
2018-06-27T13:23:05.431Z,27.30
2018-06-27T13:25:34.307Z,27.40
2018-06-27T13:28:03.203Z,27.20
2018-06-27T13:30:32.106Z,26.70
2018-06-27T13:33:01.024Z,26.80
2018-06-27T13:35:29.927Z,26.90
2018-06-27T13:37:58.858Z,27.00
2018-06-27T13:40:27.757Z,26.90
2018-06-27T13:42:56.636Z,27.00
2018-06-27T13:45:25.648Z,27.00
2018-06-27T13:47:54.559Z,27.00
2018-06-27T13:50:23.492Z,27.20
2018-06-27T13:52:52.363Z,27.30
2018-06-27T13:55:21.285Z,27.40
2018-06-27T13:57:50.222Z,27.40
2018-06-27T14:00:19.143Z,27.10
2018-06-27T14:02:48.075Z,27.40
2018-06-27T14:05:16.920Z,27.50
2018-06-27T14:07:45.971Z,27.50
2018-06-27T14:10:14.865Z,27.20
2018-06-27T14:12:43.751Z,26.60
2018-06-27T14:15:12.674Z,26.70
2018-06-27T14:17:41.548Z,26.50
2018-06-27T14:20:10.450Z,26.70
2018-06-27T14:22:39.352Z,26.90
2018-06-27T14:25:08.254Z,26.50
2018-06-27T14:27:37.177Z,26.30
2018-06-27T14:30:06.078Z,26.40
2018-06-27T14:32:35.174Z,26.60
2018-06-27T14:35:04.184Z,26.70
2018-06-27T14:37:33.080Z,26.80
2018-06-27T14:40:02.051Z,26.60
2018-06-27T14:42:30.855Z,26.40
2018-06-27T14:44:59.750Z,26.50
2018-06-27T14:47:28.641Z,26.70
2018-06-27T14:49:57.590Z,27.00
2018-06-27T14:52:26.471Z,26.90
2018-06-27T14:54:55.385Z,27.00
2018-06-27T14:57:24.271Z,26.70
